createdAt,value
2023-03-22T00:01:36.770Z,8.90
2023-03-22T00:04:05.079Z,8.80
2023-03-22T00:06:34.557Z,8.70
2023-03-22T00:09:02.616Z,8.70
2023-03-22T00:11:30.619Z,9.50
2023-03-22T00:13:58.974Z,8.80
2023-03-22T00:16:27.166Z,8.70
2023-03-22T00:18:55.274Z,8.70
2023-03-22T00:21:23.266Z,8.80
2023-03-22T00:23:52.692Z,8.90
2023-03-22T00:26:20.735Z,8.80
2023-03-22T00:28:48.719Z,8.80
2023-03-22T00:31:16.780Z,9.20
2023-03-22T00:33:44.769Z,8.70
2023-03-22T00:36:14.205Z,8.70
2023-03-22T00:38:43.699Z,8.70
2023-03-22T00:41:16.331Z,8.70
2023-03-22T00:43:45.349Z,8.80
2023-03-22T00:46:14.688Z,8.70
2023-03-22T00:48:44.381Z,8.70
2023-03-22T00:51:13.430Z,8.70
2023-03-22T00:53:43.362Z,8.80
2023-03-22T00:56:15.595Z,8.80
2023-03-22T00:58:44.121Z,8.90
2023-03-22T01:01:14.064Z,8.90
2023-03-22T01:03:42.725Z,9.70
2023-03-22T01:06:11.703Z,8.80
2023-03-22T01:08:39.863Z,8.80
2023-03-22T01:11:08.718Z,8.80
2023-03-22T01:13:39.446Z,9.00
2023-03-22T01:16:09.270Z,9.00
2023-03-22T01:18:37.485Z,8.80
2023-03-22T01:21:06.070Z,9.00
2023-03-22T01:23:34.503Z,8.80
2023-03-22T01:26:02.961Z,8.80
2023-03-22T01:28:31.042Z,8.90
2023-03-22T01:31:04.247Z,8.80
2023-03-22T01:33:32.870Z,9.50
2023-03-22T01:36:01.165Z,8.70
2023-03-22T01:38:29.479Z,9.20
2023-03-22T01:40:57.492Z,8.80
2023-03-22T01:43:25.489Z,8.80
2023-03-22T01:45:54.623Z,8.80
2023-03-22T01:48:27.692Z,8.90
2023-03-22T01:51:04.984Z,8.90
2023-03-22T01:53:36.894Z,9.00
2023-03-22T01:56:05.310Z,9.10
2023-03-22T01:58:36.985Z,9.10
2023-03-22T02:01:06.988Z,9.20
2023-03-22T02:03:44.290Z,9.30
2023-03-22T02:06:12.299Z,9.30
2023-03-22T02:08:40.731Z,9.40
2023-03-22T02:11:13.506Z,10.10
2023-03-22T02:14:05.339Z,9.50
2023-03-22T02:16:40.161Z,9.60
2023-03-22T02:19:42.374Z,9.50
2023-03-22T02:22:38.748Z,9.50
2023-03-22T02:25:31.538Z,9.40
2023-03-22T02:28:09.586Z,9.40
2023-03-22T02:31:14.687Z,9.50
2023-03-22T02:34:15.631Z,9.50
2023-03-22T02:37:07.635Z,9.40
2023-03-22T02:39:44.056Z,9.40
2023-03-22T02:42:24.751Z,9.40
2023-03-22T02:45:00.604Z,9.40
2023-03-22T02:47:38.533Z,10.10
2023-03-22T02:50:11.493Z,9.50
2023-03-22T02:52:44.012Z,9.50
2023-03-22T02:55:19.976Z,10.40
2023-03-22T02:57:51.419Z,9.40
2023-03-22T03:00:21.021Z,9.40
2023-03-22T03:02:53.461Z,9.50
2023-03-22T03:05:22.454Z,9.40
2023-03-22T03:07:55.381Z,9.50
2023-03-22T03:10:25.592Z,9.50
2023-03-22T03:12:53.599Z,9.40
2023-03-22T03:15:25.977Z,10.30
2023-03-22T03:17:59.259Z,9.80
2023-03-22T03:20:38.718Z,9.40
2023-03-22T03:23:20.413Z,9.40
2023-03-22T03:25:58.509Z,9.50
2023-03-22T03:28:38.327Z,9.40
2023-03-22T03:31:17.214Z,9.60
2023-03-22T03:33:51.895Z,9.40
2023-03-22T03:36:21.622Z,9.40
2023-03-22T03:38:53.500Z,9.40
2023-03-22T03:41:27.183Z,9.40
2023-03-22T03:43:58.460Z,9.40
2023-03-22T03:46:26.705Z,9.40
2023-03-22T03:48:58.009Z,9.40
2023-03-22T03:51:28.196Z,9.40
2023-03-22T03:53:56.445Z,9.50
2023-03-22T03:56:26.092Z,9.50
2023-03-22T03:58:54.055Z,9.40
2023-03-22T04:01:24.095Z,9.60
2023-03-22T04:03:55.344Z,9.60
2023-03-22T04:06:23.418Z,9.70
2023-03-22T04:08:53.592Z,9.40
2023-03-22T04:11:21.704Z,9.40
2023-03-22T04:13:51.159Z,9.40
2023-03-22T04:16:19.158Z,9.70
2023-03-22T04:18:47.245Z,9.40
2023-03-22T04:21:16.587Z,10.00
2023-03-22T04:23:46.600Z,9.70
2023-03-22T04:26:14.723Z,9.50
2023-03-22T04:28:42.666Z,9.50
2023-03-22T04:31:12.038Z,10.00
2023-03-22T04:33:40.225Z,9.50
2023-03-22T04:36:10.286Z,9.50
2023-03-22T04:38:40.053Z,9.40
2023-03-22T04:41:08.288Z,9.70
2023-03-22T04:43:39.315Z,9.50
2023-03-22T04:46:10.134Z,9.40
2023-03-22T04:48:40.517Z,9.40
2023-03-22T04:51:11.198Z,9.40
2023-03-22T04:53:39.878Z,9.40
2023-03-22T04:56:09.894Z,9.50
2023-03-22T04:58:39.928Z,9.50
2023-03-22T05:01:08.726Z,9.50
2023-03-22T05:03:37.552Z,9.50
2023-03-22T05:06:09.257Z,9.50
2023-03-22T05:08:38.096Z,9.50
2023-03-22T05:11:08.520Z,9.50
2023-03-22T05:13:37.387Z,9.50
2023-03-22T05:16:06.884Z,9.60
2023-03-22T05:18:34.955Z,9.50
2023-03-22T05:21:03.761Z,9.60
2023-03-22T05:23:33.240Z,9.50
2023-03-22T05:26:02.061Z,9.70
2023-03-22T05:28:31.824Z,9.50
2023-03-22T05:30:59.811Z,9.50
2023-03-22T05:33:28.085Z,9.50
2023-03-22T05:35:56.289Z,9.70
2023-03-22T05:38:24.713Z,9.90
2023-03-22T05:40:54.133Z,9.50
2023-03-22T05:43:22.182Z,9.50
2023-03-22T05:45:51.032Z,9.60
2023-03-22T05:48:19.380Z,9.60
2023-03-22T05:50:47.669Z,10.10
2023-03-22T05:53:15.722Z,9.80
2023-03-22T05:55:44.846Z,9.50
2023-03-22T05:58:18.908Z,10.20
2023-03-22T06:00:49.912Z,10.30
2023-03-22T06:03:18.306Z,9.50
2023-03-22T06:05:46.634Z,9.70
2023-03-22T06:08:14.660Z,9.60
2023-03-22T06:10:42.957Z,9.70
2023-03-22T06:13:11.064Z,9.60
2023-03-22T06:15:40.400Z,9.80
2023-03-22T06:18:08.660Z,9.80
2023-03-22T06:20:36.894Z,10.10
2023-03-22T06:23:04.927Z,9.80
2023-03-22T06:25:33.030Z,9.80
2023-03-22T06:28:01.122Z,9.70
2023-03-22T06:30:29.275Z,10.70
2023-03-22T06:33:00.557Z,9.70
2023-03-22T06:35:28.602Z,9.70
2023-03-22T06:37:56.608Z,9.80
2023-03-22T06:40:24.743Z,9.80
2023-03-22T06:42:54.395Z,10.90
2023-03-22T06:45:22.819Z,10.20
2023-03-22T06:47:51.436Z,9.80
2023-03-22T06:50:21.470Z,9.90
2023-03-22T06:52:49.573Z,9.80
2023-03-22T06:55:18.257Z,10.10
2023-03-22T06:57:46.451Z,9.90
2023-03-22T07:00:15.988Z,10.10
2023-03-22T07:02:44.268Z,9.90
2023-03-22T07:05:12.513Z,10.70
2023-03-22T07:07:42.154Z,10.30
2023-03-22T07:10:11.029Z,10.20
2023-03-22T07:12:39.515Z,10.00
2023-03-22T07:15:09.134Z,10.00
2023-03-22T07:17:37.268Z,10.10
2023-03-22T07:20:06.304Z,10.10
2023-03-22T07:22:34.532Z,10.10
2023-03-22T07:25:04.014Z,10.00
2023-03-22T07:27:32.159Z,10.20
2023-03-22T07:30:00.183Z,10.40
2023-03-22T07:32:28.501Z,11.10
2023-03-22T07:34:56.776Z,10.60
2023-03-22T07:37:25.034Z,10.30
2023-03-22T07:39:53.139Z,10.90
2023-03-22T07:42:22.734Z,10.30
2023-03-22T07:44:51.057Z,10.40
2023-03-22T07:47:30.814Z,10.40
2023-03-22T07:50:07.101Z,10.50
2023-03-22T07:52:35.217Z,10.40
2023-03-22T07:55:03.556Z,10.30
2023-03-22T07:57:33.591Z,10.50
2023-03-22T08:00:01.778Z,10.70
2023-03-22T08:02:30.023Z,10.40
2023-03-22T08:04:58.311Z,10.40
2023-03-22T08:07:26.578Z,10.60
2023-03-22T08:09:54.824Z,10.50
2023-03-22T08:12:22.972Z,10.30
2023-03-22T08:14:53.390Z,10.30
2023-03-22T08:17:21.371Z,10.40
2023-03-22T08:19:49.985Z,10.30
2023-03-22T08:22:18.358Z,10.20
2023-03-22T08:24:46.343Z,10.20
2023-03-22T08:27:14.301Z,10.30
2023-03-22T08:29:44.082Z,10.40
2023-03-22T08:32:13.521Z,10.30
2023-03-22T08:34:42.153Z,10.10
2023-03-22T08:37:11.833Z,10.10
2023-03-22T08:39:40.147Z,10.10
2023-03-22T08:42:08.199Z,10.50
2023-03-22T08:44:36.870Z,10.10
2023-03-22T08:47:05.172Z,10.30
2023-03-22T08:49:34.619Z,10.10
2023-03-22T08:52:02.562Z,10.10
2023-03-22T08:54:33.551Z,10.30
2023-03-22T08:57:03.444Z,10.10
2023-03-22T08:59:31.677Z,10.10
2023-03-22T09:01:59.809Z,10.20
2023-03-22T09:04:27.966Z,10.10
2023-03-22T09:06:57.350Z,10.10
2023-03-22T09:09:25.398Z,10.10
2023-03-22T09:11:53.415Z,10.20
2023-03-22T09:14:21.363Z,10.20
2023-03-22T09:16:49.572Z,10.00
2023-03-22T09:19:17.566Z,10.10
2023-03-22T09:21:45.660Z,10.10
2023-03-22T09:24:15.241Z,10.10
2023-03-22T09:26:43.445Z,10.10
2023-03-22T09:29:11.748Z,10.20
2023-03-22T09:31:39.905Z,10.10
2023-03-22T09:34:07.888Z,10.00
2023-03-22T09:36:36.113Z,10.10
2023-03-22T09:39:07.269Z,10.10
2023-03-22T09:41:40.755Z,10.10
2023-03-22T09:44:13.594Z,10.20
2023-03-22T09:46:45.916Z,10.20
2023-03-22T09:49:15.838Z,10.20
2023-03-22T09:51:46.148Z,10.10
2023-03-22T09:54:19.598Z,10.10
2023-03-22T09:56:54.631Z,10.10
2023-03-22T09:59:27.535Z,10.20
2023-03-22T10:02:00.558Z,10.20
2023-03-22T10:04:51.184Z,10.10
2023-03-22T10:07:29.072Z,10.10
2023-03-22T10:10:09.300Z,10.10
2023-03-22T10:12:46.958Z,10.10
2023-03-22T10:15:17.322Z,10.30
2023-03-22T10:17:49.268Z,10.20
2023-03-22T10:20:28.835Z,10.20
2023-03-22T10:22:59.339Z,10.30
2023-03-22T10:25:34.560Z,10.80
2023-03-22T10:28:11.262Z,10.20
2023-03-22T10:30:41.707Z,10.20
2023-03-22T10:33:17.571Z,10.30
2023-03-22T10:35:46.739Z,10.40
2023-03-22T10:38:22.812Z,10.30
2023-03-22T10:40:51.438Z,10.40
2023-03-22T10:43:24.809Z,10.50
2023-03-22T10:45:55.722Z,10.50
2023-03-22T10:48:29.607Z,10.50
2023-03-22T10:50:59.130Z,10.50
2023-03-22T10:53:33.764Z,10.50
2023-03-22T10:56:02.190Z,10.60
2023-03-22T10:58:33.641Z,10.60
2023-03-22T11:01:07.192Z,10.70
2023-03-22T11:03:40.818Z,10.70
2023-03-22T11:06:11.959Z,10.80
2023-03-22T11:08:42.821Z,10.80
2023-03-22T11:11:19.173Z,10.80
2023-03-22T11:13:55.395Z,10.80
2023-03-22T11:16:24.668Z,10.80
2023-03-22T11:18:52.843Z,10.80
2023-03-22T11:21:25.631Z,10.80
2023-03-22T11:23:59.414Z,10.80
2023-03-22T11:26:37.371Z,10.80
2023-03-22T11:29:15.055Z,10.80
2023-03-22T11:31:57.062Z,10.90
2023-03-22T11:34:27.974Z,10.90
2023-03-22T11:36:57.911Z,10.90
2023-03-22T11:39:28.523Z,10.80
2023-03-22T11:42:01.515Z,10.90
2023-03-22T11:44:35.489Z,10.90
2023-03-22T11:47:05.287Z,10.90
2023-03-22T11:49:40.846Z,10.90
2023-03-22T11:52:12.608Z,10.90
2023-03-22T11:54:42.629Z,10.90
2023-03-22T11:57:17.034Z,10.90
2023-03-22T11:59:54.499Z,10.90
2023-03-22T12:02:26.682Z,11.00
2023-03-22T12:04:57.307Z,11.00
2023-03-22T12:07:29.406Z,11.00
2023-03-22T12:10:02.573Z,11.00
2023-03-22T12:12:34.320Z,11.00
2023-03-22T12:15:07.012Z,11.00
2023-03-22T12:17:39.348Z,11.10
2023-03-22T12:20:14.178Z,11.10
2023-03-22T12:22:47.703Z,11.10
2023-03-22T12:25:18.187Z,11.20
2023-03-22T12:27:49.736Z,11.20
2023-03-22T12:30:23.074Z,11.20
2023-03-22T12:32:55.151Z,11.20
2023-03-22T12:35:27.496Z,11.20
2023-03-22T12:37:56.915Z,11.30
2023-03-22T12:40:26.979Z,11.30
2023-03-22T12:43:10.498Z,11.30
2023-03-22T12:45:43.548Z,11.30
2023-03-22T12:48:19.997Z,11.40
2023-03-22T12:50:53.297Z,11.40
2023-03-22T12:53:23.106Z,11.60
2023-03-22T12:55:52.230Z,11.40
2023-03-22T12:58:23.344Z,11.50
2023-03-22T13:00:56.000Z,11.50
2023-03-22T13:03:29.193Z,11.60
2023-03-22T13:06:04.514Z,11.60
2023-03-22T13:09:10.553Z,11.60
2023-03-22T13:11:39.190Z,11.60
2023-03-22T13:14:07.632Z,11.60
2023-03-22T13:17:08.594Z,11.60
2023-03-22T13:19:37.763Z,11.70
2023-03-22T13:22:20.218Z,11.50
2023-03-22T13:25:08.654Z,11.60
2023-03-22T13:27:39.623Z,11.70
2023-03-22T13:30:18.206Z,11.70
2023-03-22T13:32:54.561Z,11.70
2023-03-22T13:35:28.033Z,11.70
2023-03-22T13:38:01.724Z,11.80
2023-03-22T13:40:37.729Z,11.80
2023-03-22T13:43:14.455Z,11.80
2023-03-22T13:46:09.067Z,11.80
2023-03-22T13:48:54.263Z,11.80
2023-03-22T13:51:30.523Z,11.80
2023-03-22T13:54:03.522Z,11.90
2023-03-22T13:56:52.771Z,11.90
2023-03-22T13:59:27.219Z,11.80
2023-03-22T14:02:00.269Z,11.90
2023-03-22T14:04:38.344Z,11.90
2023-03-22T14:07:11.813Z,11.90
2023-03-22T14:09:45.094Z,11.90
2023-03-22T14:12:20.642Z,11.90
2023-03-22T14:14:53.020Z,12.00
2023-03-22T14:17:32.831Z,11.90
2023-03-22T14:20:05.345Z,11.90
